sensor_id;sensor_type;location;lat;lon;timestamp;P1;durP1;ratioP1;P2;durP2;ratioP2
44110;SDS011;29774;52.664;5.074;2022-12-05T00:00:34;20.33;;;11.35;;
44110;SDS011;29774;52.664;5.074;2022-12-05T00:03:03;18.25;;;11.23;;
44110;SDS011;29774;52.664;5.074;2022-12-05T00:05:29;18.52;;;11.52;;
44110;SDS011;29774;52.664;5.074;2022-12-05T00:07:55;20.50;;;12.23;;
44110;SDS011;29774;52.664;5.074;2022-12-05T00:10:21;19.65;;;11.18;;
44110;SDS011;29774;52.664;5.074;2022-12-05T00:12:46;18.23;;;12.05;;
44110;SDS011;29774;52.664;5.074;2022-12-05T00:15:13;16.35;;;10.43;;
44110;SDS011;29774;52.664;5.074;2022-12-05T00:17:39;16.67;;;11.30;;
44110;SDS011;29774;52.664;5.074;2022-12-05T00:20:08;17.35;;;11.45;;
44110;SDS011;29774;52.664;5.074;2022-12-05T00:22:34;18.33;;;10.38;;
44110;SDS011;29774;52.664;5.074;2022-12-05T00:25:03;18.25;;;12.68;;
44110;SDS011;29774;52.664;5.074;2022-12-05T00:27:30;18.27;;;11.65;;
44110;SDS011;29774;52.664;5.074;2022-12-05T00:29:56;17.02;;;9.98;;
44110;SDS011;29774;52.664;5.074;2022-12-05T00:32:22;17.48;;;10.82;;
44110;SDS011;29774;52.664;5.074;2022-12-05T00:34:47;18.52;;;10.68;;
44110;SDS011;29774;52.664;5.074;2022-12-05T00:37:13;18.80;;;11.30;;
44110;SDS011;29774;52.664;5.074;2022-12-05T00:39:39;18.67;;;11.23;;
44110;SDS011;29774;52.664;5.074;2022-12-05T00:42:05;18.92;;;10.82;;
44110;SDS011;29774;52.664;5.074;2022-12-05T00:44:31;16.92;;;10.60;;
44110;SDS011;29774;52.664;5.074;2022-12-05T00:46:56;16.90;;;11.07;;
44110;SDS011;29774;52.664;5.074;2022-12-05T00:49:22;19.60;;;11.55;;
44110;SDS011;29774;52.664;5.074;2022-12-05T00:51:48;16.08;;;10.10;;
44110;SDS011;29774;52.664;5.074;2022-12-05T00:54:14;16.67;;;10.40;;
44110;SDS011;29774;52.664;5.074;2022-12-05T00:56:40;18.13;;;11.40;;
44110;SDS011;29774;52.664;5.074;2022-12-05T00:59:07;15.77;;;10.93;;
44110;SDS011;29774;52.664;5.074;2022-12-05T01:01:37;21.35;;;11.43;;
44110;SDS011;29774;52.664;5.074;2022-12-05T01:04:09;14.35;;;10.50;;
44110;SDS011;29774;52.664;5.074;2022-12-05T01:06:54;16.58;;;10.10;;
44110;SDS011;29774;52.664;5.074;2022-12-05T01:09:20;14.30;;;9.18;;
44110;SDS011;29774;52.664;5.074;2022-12-05T01:11:46;18.20;;;11.23;;
44110;SDS011;29774;52.664;5.074;2022-12-05T01:14:13;15.45;;;9.85;;
44110;SDS011;29774;52.664;5.074;2022-12-05T01:16:43;16.40;;;11.20;;
44110;SDS011;29774;52.664;5.074;2022-12-05T01:19:12;18.42;;;10.95;;
44110;SDS011;29774;52.664;5.074;2022-12-05T01:21:39;19.52;;;12.07;;
44110;SDS011;29774;52.664;5.074;2022-12-05T01:24:05;19.85;;;10.95;;
44110;SDS011;29774;52.664;5.074;2022-12-05T01:26:31;15.60;;;9.20;;
44110;SDS011;29774;52.664;5.074;2022-12-05T01:28:56;15.70;;;10.60;;
44110;SDS011;29774;52.664;5.074;2022-12-05T01:33:50;12.75;;;9.02;;
44110;SDS011;29774;52.664;5.074;2022-12-05T01:36:17;15.30;;;10.23;;
44110;SDS011;29774;52.664;5.074;2022-12-05T01:38:43;18.20;;;10.10;;
44110;SDS011;29774;52.664;5.074;2022-12-05T01:41:14;15.65;;;9.30;;
44110;SDS011;29774;52.664;5.074;2022-12-05T01:43:55;16.95;;;10.60;;
44110;SDS011;29774;52.664;5.074;2022-12-05T01:46:21;17.50;;;10.70;;
44110;SDS011;29774;52.664;5.074;2022-12-05T01:48:47;17.45;;;10.30;;
44110;SDS011;29774;52.664;5.074;2022-12-05T01:51:13;16.33;;;10.07;;
44110;SDS011;29774;52.664;5.074;2022-12-05T01:53:39;18.95;;;11.10;;
44110;SDS011;29774;52.664;5.074;2022-12-05T01:56:05;17.20;;;10.50;;
44110;SDS011;29774;52.664;5.074;2022-12-05T01:58:32;18.02;;;10.95;;
44110;SDS011;29774;52.664;5.074;2022-12-05T02:01:01;16.25;;;11.00;;
44110;SDS011;29774;52.664;5.074;2022-12-05T02:03:27;14.80;;;11.10;;
44110;SDS011;29774;52.664;5.074;2022-12-05T02:05:53;18.77;;;10.98;;
44110;SDS011;29774;52.664;5.074;2022-12-05T02:08:21;19.70;;;11.05;;
44110;SDS011;29774;52.664;5.074;2022-12-05T02:10:48;19.48;;;11.95;;
44110;SDS011;29774;52.664;5.074;2022-12-05T02:21:33;18.48;;;11.25;;
44110;SDS011;29774;52.664;5.074;2022-12-05T02:37:14;17.17;;;11.15;;
44110;SDS011;29774;52.664;5.074;2022-12-05T02:40:04;18.52;;;11.57;;
44110;SDS011;29774;52.664;5.074;2022-12-05T02:45:07;15.98;;;9.25;;
44110;SDS011;29774;52.664;5.074;2022-12-05T02:47:37;16.73;;;10.57;;
44110;SDS011;29774;52.664;5.074;2022-12-05T02:50:08;15.23;;;10.35;;
44110;SDS011;29774;52.664;5.074;2022-12-05T02:52:37;18.45;;;11.23;;
44110;SDS011;29774;52.664;5.074;2022-12-05T02:55:03;16.10;;;11.48;;
44110;SDS011;29774;52.664;5.074;2022-12-05T02:57:32;18.27;;;11.40;;
44110;SDS011;29774;52.664;5.074;2022-12-05T03:00:00;16.55;;;11.20;;
44110;SDS011;29774;52.664;5.074;2022-12-05T03:02:26;18.88;;;12.45;;
44110;SDS011;29774;52.664;5.074;2022-12-05T03:04:56;15.75;;;9.52;;
44110;SDS011;29774;52.664;5.074;2022-12-05T03:07:28;18.27;;;11.02;;
44110;SDS011;29774;52.664;5.074;2022-12-05T03:09:59;16.02;;;10.93;;
44110;SDS011;29774;52.664;5.074;2022-12-05T03:12:30;18.15;;;11.90;;
44110;SDS011;29774;52.664;5.074;2022-12-05T03:15:09;18.30;;;11.40;;
44110;SDS011;29774;52.664;5.074;2022-12-05T03:17:50;20.98;;;12.73;;
44110;SDS011;29774;52.664;5.074;2022-12-05T03:20:22;17.20;;;10.95;;
44110;SDS011;29774;52.664;5.074;2022-12-05T03:22:59;18.08;;;11.60;;
44110;SDS011;29774;52.664;5.074;2022-12-05T03:25:49;21.83;;;11.98;;
44110;SDS011;29774;52.664;5.074;2022-12-05T03:28:24;21.00;;;11.48;;
44110;SDS011;29774;52.664;5.074;2022-12-05T03:31:01;18.92;;;11.70;;
44110;SDS011;29774;52.664;5.074;2022-12-05T03:33:34;22.65;;;12.88;;
44110;SDS011;29774;52.664;5.074;2022-12-05T03:38:32;24.17;;;14.30;;
44110;SDS011;29774;52.664;5.074;2022-12-05T03:41:05;21.20;;;12.60;;
44110;SDS011;29774;52.664;5.074;2022-12-05T03:43:59;21.75;;;12.57;;
44110;SDS011;29774;52.664;5.074;2022-12-05T03:46:30;23.48;;;14.05;;
44110;SDS011;29774;52.664;5.074;2022-12-05T03:54:29;21.52;;;12.55;;
44110;SDS011;29774;52.664;5.074;2022-12-05T03:57:07;19.70;;;11.57;;
44110;SDS011;29774;52.664;5.074;2022-12-05T03:59:52;20.90;;;12.18;;
44110;SDS011;29774;52.664;5.074;2022-12-05T04:02:30;22.20;;;13.13;;
44110;SDS011;29774;52.664;5.074;2022-12-05T04:05:25;18.42;;;11.90;;
44110;SDS011;29774;52.664;5.074;2022-12-05T04:08:15;20.13;;;11.10;;
44110;SDS011;29774;52.664;5.074;2022-12-05T04:10:55;21.05;;;12.20;;
44110;SDS011;29774;52.664;5.074;2022-12-05T04:13:31;19.77;;;12.38;;
44110;SDS011;29774;52.664;5.074;2022-12-05T04:16:09;16.08;;;10.43;;
44110;SDS011;29774;52.664;5.074;2022-12-05T04:19:07;20.17;;;11.60;;
44110;SDS011;29774;52.664;5.074;2022-12-05T04:21:47;19.15;;;11.35;;
44110;SDS011;29774;52.664;5.074;2022-12-05T04:24:26;18.23;;;11.23;;
44110;SDS011;29774;52.664;5.074;2022-12-05T04:30:12;17.63;;;11.70;;
44110;SDS011;29774;52.664;5.074;2022-12-05T04:32:40;18.90;;;11.43;;
44110;SDS011;29774;52.664;5.074;2022-12-05T04:35:32;18.73;;;11.65;;
44110;SDS011;29774;52.664;5.074;2022-12-05T04:38:03;15.00;;;9.52;;
44110;SDS011;29774;52.664;5.074;2022-12-05T04:40:52;17.70;;;10.43;;
44110;SDS011;29774;52.664;5.074;2022-12-05T04:43:24;15.63;;;10.38;;
44110;SDS011;29774;52.664;5.074;2022-12-05T04:45:52;14.88;;;10.13;;
44110;SDS011;29774;52.664;5.074;2022-12-05T04:48:20;13.65;;;9.90;;
44110;SDS011;29774;52.664;5.074;2022-12-05T04:50:47;16.52;;;10.65;;
44110;SDS011;29774;52.664;5.074;2022-12-05T04:53:14;16.55;;;10.13;;
44110;SDS011;29774;52.664;5.074;2022-12-05T04:55:43;15.20;;;10.40;;
44110;SDS011;29774;52.664;5.074;2022-12-05T04:58:19;17.48;;;10.07;;
44110;SDS011;29774;52.664;5.074;2022-12-05T05:01:04;12.82;;;9.38;;
44110;SDS011;29774;52.664;5.074;2022-12-05T05:03:37;15.95;;;10.32;;
44110;SDS011;29774;52.664;5.074;2022-12-05T05:06:10;13.80;;;8.90;;
44110;SDS011;29774;52.664;5.074;2022-12-05T05:08:44;14.35;;;9.32;;
44110;SDS011;29774;52.664;5.074;2022-12-05T05:11:15;13.32;;;8.88;;
44110;SDS011;29774;52.664;5.074;2022-12-05T05:13:43;10.75;;;8.45;;
44110;SDS011;29774;52.664;5.074;2022-12-05T05:16:13;13.07;;;8.77;;
44110;SDS011;29774;52.664;5.074;2022-12-05T05:18:47;12.15;;;8.10;;
44110;SDS011;29774;52.664;5.074;2022-12-05T05:21:24;13.05;;;8.20;;
44110;SDS011;29774;52.664;5.074;2022-12-05T05:23:51;13.20;;;7.20;;
44110;SDS011;29774;52.664;5.074;2022-12-05T05:26:18;13.60;;;6.93;;
44110;SDS011;29774;52.664;5.074;2022-12-05T05:28:44;10.82;;;7.25;;
44110;SDS011;29774;52.664;5.074;2022-12-05T05:31:10;10.23;;;6.57;;
44110;SDS011;29774;52.664;5.074;2022-12-05T05:33:36;8.82;;;6.68;;
44110;SDS011;29774;52.664;5.074;2022-12-05T05:36:03;11.05;;;8.30;;
44110;SDS011;29774;52.664;5.074;2022-12-05T05:38:42;8.05;;;6.07;;
44110;SDS011;29774;52.664;5.074;2022-12-05T05:41:16;9.75;;;6.82;;
44110;SDS011;29774;52.664;5.074;2022-12-05T05:43:53;9.57;;;7.18;;
44110;SDS011;29774;52.664;5.074;2022-12-05T05:46:20;8.13;;;6.32;;
44110;SDS011;29774;52.664;5.074;2022-12-05T05:48:48;7.85;;;5.95;;
44110;SDS011;29774;52.664;5.074;2022-12-05T05:51:15;8.85;;;6.00;;
44110;SDS011;29774;52.664;5.074;2022-12-05T05:53:41;7.80;;;5.57;;
44110;SDS011;29774;52.664;5.074;2022-12-05T05:56:08;8.65;;;5.97;;
44110;SDS011;29774;52.664;5.074;2022-12-05T05:58:36;9.30;;;6.28;;
44110;SDS011;29774;52.664;5.074;2022-12-05T06:01:03;7.93;;;5.45;;
44110;SDS011;29774;52.664;5.074;2022-12-05T06:03:31;8.68;;;6.05;;
44110;SDS011;29774;52.664;5.074;2022-12-05T06:05:57;7.88;;;6.38;;
44110;SDS011;29774;52.664;5.074;2022-12-05T06:08:24;9.13;;;5.38;;
44110;SDS011;29774;52.664;5.074;2022-12-05T06:10:49;8.65;;;6.25;;
44110;SDS011;29774;52.664;5.074;2022-12-05T06:13:15;7.43;;;5.53;;
44110;SDS011;29774;52.664;5.074;2022-12-05T06:15:40;7.53;;;6.03;;
44110;SDS011;29774;52.664;5.074;2022-12-05T06:18:06;8.25;;;5.22;;
44110;SDS011;29774;52.664;5.074;2022-12-05T06:20:32;6.80;;;4.65;;
44110;SDS011;29774;52.664;5.074;2022-12-05T06:22:57;7.47;;;5.88;;
44110;SDS011;29774;52.664;5.074;2022-12-05T06:25:23;5.90;;;4.75;;
44110;SDS011;29774;52.664;5.074;2022-12-05T06:27:48;6.80;;;4.90;;
44110;SDS011;29774;52.664;5.074;2022-12-05T06:30:14;6.68;;;4.68;;
44110;SDS011;29774;52.664;5.074;2022-12-05T06:32:40;7.28;;;5.20;;
44110;SDS011;29774;52.664;5.074;2022-12-05T06:35:05;7.50;;;5.13;;
44110;SDS011;29774;52.664;5.074;2022-12-05T06:37:39;6.57;;;5.30;;
44110;SDS011;29774;52.664;5.074;2022-12-05T06:40:08;10.32;;;5.63;;
44110;SDS011;29774;52.664;5.074;2022-12-05T06:42:38;5.60;;;4.80;;
44110;SDS011;29774;52.664;5.074;2022-12-05T06:45:04;6.70;;;5.35;;
44110;SDS011;29774;52.664;5.074;2022-12-05T06:47:30;6.30;;;4.55;;
44110;SDS011;29774;52.664;5.074;2022-12-05T06:49:56;9.15;;;5.43;;
44110;SDS011;29774;52.664;5.074;2022-12-05T06:52:21;8.07;;;4.80;;
44110;SDS011;29774;52.664;5.074;2022-12-05T06:54:47;7.80;;;4.85;;
44110;SDS011;29774;52.664;5.074;2022-12-05T06:57:13;9.35;;;5.32;;
44110;SDS011;29774;52.664;5.074;2022-12-05T06:59:38;7.63;;;4.93;;
44110;SDS011;29774;52.664;5.074;2022-12-05T07:02:04;5.50;;;4.60;;
44110;SDS011;29774;52.664;5.074;2022-12-05T07:04:32;10.25;;;5.43;;
44110;SDS011;29774;52.664;5.074;2022-12-05T07:06:58;9.30;;;4.93;;
44110;SDS011;29774;52.664;5.074;2022-12-05T07:09:26;8.75;;;6.32;;
44110;SDS011;29774;52.664;5.074;2022-12-05T07:12:14;6.07;;;4.30;;
44110;SDS011;29774;52.664;5.074;2022-12-05T07:14:42;6.95;;;5.20;;
44110;SDS011;29774;52.664;5.074;2022-12-05T07:17:08;8.40;;;5.43;;
44110;SDS011;29774;52.664;5.074;2022-12-05T07:19:34;6.63;;;5.07;;
44110;SDS011;29774;52.664;5.074;2022-12-05T07:22:00;6.45;;;4.82;;
44110;SDS011;29774;52.664;5.074;2022-12-05T07:24:25;8.68;;;5.57;;
44110;SDS011;29774;52.664;5.074;2022-12-05T07:26:51;7.10;;;4.63;;
44110;SDS011;29774;52.664;5.074;2022-12-05T07:29:17;5.70;;;3.85;;
44110;SDS011;29774;52.664;5.074;2022-12-05T07:31:43;7.22;;;5.30;;
44110;SDS011;29774;52.664;5.074;2022-12-05T07:34:08;8.18;;;4.97;;
44110;SDS011;29774;52.664;5.074;2022-12-05T07:36:34;10.25;;;6.10;;
44110;SDS011;29774;52.664;5.074;2022-12-05T07:39:03;6.95;;;5.40;;
44110;SDS011;29774;52.664;5.074;2022-12-05T07:41:29;6.43;;;5.35;;
44110;SDS011;29774;52.664;5.074;2022-12-05T07:43:57;10.40;;;5.85;;
44110;SDS011;29774;52.664;5.074;2022-12-05T07:46:24;7.55;;;5.18;;
44110;SDS011;29774;52.664;5.074;2022-12-05T07:48:51;8.73;;;5.95;;
44110;SDS011;29774;52.664;5.074;2022-12-05T07:51:17;6.90;;;5.55;;
44110;SDS011;29774;52.664;5.074;2022-12-05T07:53:44;7.25;;;5.38;;
44110;SDS011;29774;52.664;5.074;2022-12-05T07:56:11;10.57;;;4.93;;
44110;SDS011;29774;52.664;5.074;2022-12-05T07:58:41;6.45;;;4.15;;
44110;SDS011;29774;52.664;5.074;2022-12-05T08:01:15;8.65;;;5.55;;
44110;SDS011;29774;52.664;5.074;2022-12-05T08:03:49;8.77;;;5.28;;
44110;SDS011;29774;52.664;5.074;2022-12-05T08:06:17;7.10;;;5.15;;
44110;SDS011;29774;52.664;5.074;2022-12-05T08:08:45;9.63;;;5.15;;
44110;SDS011;29774;52.664;5.074;2022-12-05T08:11:14;7.90;;;5.75;;
44110;SDS011;29774;52.664;5.074;2022-12-05T08:13:41;6.63;;;4.68;;
44110;SDS011;29774;52.664;5.074;2022-12-05T08:16:08;7.68;;;4.88;;
44110;SDS011;29774;52.664;5.074;2022-12-05T08:18:36;7.93;;;4.68;;
44110;SDS011;29774;52.664;5.074;2022-12-05T08:21:06;7.03;;;5.57;;
44110;SDS011;29774;52.664;5.074;2022-12-05T08:23:37;7.25;;;4.55;;
44110;SDS011;29774;52.664;5.074;2022-12-05T08:26:11;8.45;;;5.20;;
44110;SDS011;29774;52.664;5.074;2022-12-05T08:28:37;6.45;;;5.38;;
44110;SDS011;29774;52.664;5.074;2022-12-05T08:31:07;9.73;;;5.30;;
44110;SDS011;29774;52.664;5.074;2022-12-05T08:33:38;8.43;;;4.78;;
44110;SDS011;29774;52.664;5.074;2022-12-05T08:36:05;7.82;;;5.30;;
44110;SDS011;29774;52.664;5.074;2022-12-05T08:38:33;7.97;;;5.15;;
44110;SDS011;29774;52.664;5.074;2022-12-05T08:40:59;7.40;;;5.55;;
44110;SDS011;29774;52.664;5.074;2022-12-05T08:43:28;6.25;;;5.20;;
44110;SDS011;29774;52.664;5.074;2022-12-05T08:45:54;7.13;;;4.88;;
44110;SDS011;29774;52.664;5.074;2022-12-05T08:48:20;5.15;;;4.20;;
44110;SDS011;29774;52.664;5.074;2022-12-05T08:50:46;7.50;;;4.88;;
44110;SDS011;29774;52.664;5.074;2022-12-05T08:53:12;5.93;;;4.45;;
44110;SDS011;29774;52.664;5.074;2022-12-05T08:55:37;5.35;;;4.60;;
44110;SDS011;29774;52.664;5.074;2022-12-05T08:58:03;6.20;;;4.18;;
44110;SDS011;29774;52.664;5.074;2022-12-05T09:00:29;7.53;;;5.18;;
44110;SDS011;29774;52.664;5.074;2022-12-05T09:02:55;4.80;;;4.00;;
44110;SDS011;29774;52.664;5.074;2022-12-05T09:05:22;6.18;;;4.70;;
44110;SDS011;29774;52.664;5.074;2022-12-05T09:07:48;7.20;;;4.63;;
44110;SDS011;29774;52.664;5.074;2022-12-05T09:10:14;5.90;;;4.10;;
44110;SDS011;29774;52.664;5.074;2022-12-05T09:12:39;7.18;;;5.00;;
44110;SDS011;29774;52.664;5.074;2022-12-05T09:15:05;7.30;;;4.78;;
44110;SDS011;29774;52.664;5.074;2022-12-05T09:17:32;4.90;;;3.40;;
44110;SDS011;29774;52.664;5.074;2022-12-05T09:19:58;4.85;;;3.30;;
44110;SDS011;29774;52.664;5.074;2022-12-05T09:22:23;8.98;;;5.13;;
44110;SDS011;29774;52.664;5.074;2022-12-05T09:24:49;6.65;;;4.20;;
44110;SDS011;29774;52.664;5.074;2022-12-05T09:27:15;5.35;;;4.30;;
44110;SDS011;29774;52.664;5.074;2022-12-05T09:29:41;7.57;;;4.40;;
44110;SDS011;29774;52.664;5.074;2022-12-05T09:32:07;7.75;;;4.50;;
44110;SDS011;29774;52.664;5.074;2022-12-05T09:34:33;7.75;;;4.53;;
44110;SDS011;29774;52.664;5.074;2022-12-05T09:36:59;7.68;;;4.55;;
44110;SDS011;29774;52.664;5.074;2022-12-05T09:39:25;11.18;;;4.90;;
44110;SDS011;29774;52.664;5.074;2022-12-05T09:41:55;6.97;;;4.95;;
44110;SDS011;29774;52.664;5.074;2022-12-05T09:44:47;8.30;;;4.65;;
44110;SDS011;29774;52.664;5.074;2022-12-05T09:50:03;9.70;;;4.70;;
44110;SDS011;29774;52.664;5.074;2022-12-05T09:55:43;9.75;;;4.72;;
44110;SDS011;29774;52.664;5.074;2022-12-05T10:00:53;6.72;;;3.88;;
44110;SDS011;29774;52.664;5.074;2022-12-05T10:03:41;5.75;;;4.03;;
44110;SDS011;29774;52.664;5.074;2022-12-05T10:06:12;10.35;;;4.75;;
44110;SDS011;29774;52.664;5.074;2022-12-05T10:08:54;6.95;;;4.80;;
44110;SDS011;29774;52.664;5.074;2022-12-05T10:11:46;6.18;;;3.83;;
44110;SDS011;29774;52.664;5.074;2022-12-05T10:14:40;8.07;;;4.43;;
44110;SDS011;29774;52.664;5.074;2022-12-05T10:17:17;7.63;;;3.97;;
44110;SDS011;29774;52.664;5.074;2022-12-05T10:19:49;12.23;;;6.15;;
44110;SDS011;29774;52.664;5.074;2022-12-05T10:25:23;5.45;;;3.95;;
44110;SDS011;29774;52.664;5.074;2022-12-05T10:27:52;10.73;;;4.78;;
44110;SDS011;29774;52.664;5.074;2022-12-05T10:30:22;7.57;;;5.22;;
44110;SDS011;29774;52.664;5.074;2022-12-05T10:32:55;9.02;;;5.10;;
44110;SDS011;29774;52.664;5.074;2022-12-05T10:35:23;7.68;;;4.78;;
44110;SDS011;29774;52.664;5.074;2022-12-05T10:37:52;7.32;;;4.75;;
44110;SDS011;29774;52.664;5.074;2022-12-05T10:40:20;11.55;;;5.10;;
44110;SDS011;29774;52.664;5.074;2022-12-05T10:42:47;10.15;;;5.18;;
44110;SDS011;29774;52.664;5.074;2022-12-05T10:45:18;8.15;;;5.00;;
44110;SDS011;29774;52.664;5.074;2022-12-05T10:47:46;11.30;;;5.38;;
44110;SDS011;29774;52.664;5.074;2022-12-05T10:50:21;8.77;;;4.15;;
44110;SDS011;29774;52.664;5.074;2022-12-05T10:52:51;7.72;;;5.55;;
44110;SDS011;29774;52.664;5.074;2022-12-05T10:55:18;6.72;;;3.25;;
44110;SDS011;29774;52.664;5.074;2022-12-05T10:57:48;11.60;;;4.80;;
44110;SDS011;29774;52.664;5.074;2022-12-05T11:00:19;7.93;;;4.78;;
44110;SDS011;29774;52.664;5.074;2022-12-05T11:02:47;6.38;;;4.40;;
44110;SDS011;29774;52.664;5.074;2022-12-05T11:05:14;12.98;;;5.93;;
44110;SDS011;29774;52.664;5.074;2022-12-05T11:07:45;6.97;;;4.53;;
44110;SDS011;29774;52.664;5.074;2022-12-05T11:10:33;9.60;;;4.72;;
44110;SDS011;29774;52.664;5.074;2022-12-05T11:13:02;10.70;;;5.82;;
44110;SDS011;29774;52.664;5.074;2022-12-05T11:15:47;13.00;;;4.78;;
44110;SDS011;29774;52.664;5.074;2022-12-05T11:18:18;11.55;;;5.13;;
44110;SDS011;29774;52.664;5.074;2022-12-05T11:20:53;12.35;;;5.13;;
44110;SDS011;29774;52.664;5.074;2022-12-05T11:23:29;8.60;;;4.93;;
44110;SDS011;29774;52.664;5.074;2022-12-05T11:25:55;9.05;;;4.38;;
44110;SDS011;29774;52.664;5.074;2022-12-05T11:28:23;10.05;;;5.25;;
44110;SDS011;29774;52.664;5.074;2022-12-05T11:31:21;8.88;;;4.75;;
44110;SDS011;29774;52.664;5.074;2022-12-05T11:34:08;7.15;;;4.70;;
44110;SDS011;29774;52.664;5.074;2022-12-05T11:36:44;7.53;;;4.00;;
44110;SDS011;29774;52.664;5.074;2022-12-05T11:39:14;8.75;;;4.85;;
44110;SDS011;29774;52.664;5.074;2022-12-05T11:41:47;10.23;;;5.55;;
44110;SDS011;29774;52.664;5.074;2022-12-05T11:44:57;11.68;;;5.22;;
44110;SDS011;29774;52.664;5.074;2022-12-05T11:47:58;12.32;;;5.22;;
44110;SDS011;29774;52.664;5.074;2022-12-05T11:50:43;9.18;;;5.22;;
44110;SDS011;29774;52.664;5.074;2022-12-05T12:10:13;9.68;;;4.57;;
44110;SDS011;29774;52.664;5.074;2022-12-05T12:40:26;14.93;;;5.45;;
44110;SDS011;29774;52.664;5.074;2022-12-05T12:46:07;13.77;;;5.78;;
44110;SDS011;29774;52.664;5.074;2022-12-05T12:51:34;10.07;;;5.10;;
44110;SDS011;29774;52.664;5.074;2022-12-05T13:02:07;11.23;;;5.95;;
44110;SDS011;29774;52.664;5.074;2022-12-05T13:04:49;9.68;;;5.28;;
44110;SDS011;29774;52.664;5.074;2022-12-05T13:10:11;7.25;;;4.82;;
44110;SDS011;29774;52.664;5.074;2022-12-05T13:12:46;9.60;;;4.70;;
44110;SDS011;29774;52.664;5.074;2022-12-05T13:15:14;11.55;;;4.68;;
44110;SDS011;29774;52.664;5.074;2022-12-05T13:17:43;7.80;;;4.65;;
44110;SDS011;29774;52.664;5.074;2022-12-05T13:20:15;8.75;;;4.63;;
44110;SDS011;29774;52.664;5.074;2022-12-05T13:22:43;9.93;;;5.03;;
44110;SDS011;29774;52.664;5.074;2022-12-05T13:25:13;6.47;;;4.32;;
44110;SDS011;29774;52.664;5.074;2022-12-05T13:27:40;9.02;;;4.60;;
44110;SDS011;29774;52.664;5.074;2022-12-05T13:30:28;12.38;;;4.72;;
44110;SDS011;29774;52.664;5.074;2022-12-05T13:33:03;8.20;;;4.03;;
44110;SDS011;29774;52.664;5.074;2022-12-05T13:35:34;7.65;;;3.50;;
44110;SDS011;29774;52.664;5.074;2022-12-05T13:38:21;8.15;;;4.43;;
44110;SDS011;29774;52.664;5.074;2022-12-05T13:41:10;10.15;;;4.25;;
44110;SDS011;29774;52.664;5.074;2022-12-05T13:43:55;6.50;;;4.28;;
44110;SDS011;29774;52.664;5.074;2022-12-05T13:46:28;8.70;;;4.50;;
44110;SDS011;29774;52.664;5.074;2022-12-05T13:49:06;10.35;;;4.55;;
44110;SDS011;29774;52.664;5.074;2022-12-05T13:52:02;7.25;;;4.18;;
44110;SDS011;29774;52.664;5.074;2022-12-05T13:54:32;7.78;;;4.72;;
44110;SDS011;29774;52.664;5.074;2022-12-05T13:57:00;8.50;;;4.22;;
44110;SDS011;29774;52.664;5.074;2022-12-05T14:07:47;6.45;;;4.45;;
44110;SDS011;29774;52.664;5.074;2022-12-05T14:10:15;9.52;;;4.88;;
44110;SDS011;29774;52.664;5.074;2022-12-05T14:12:53;9.93;;;4.65;;
44110;SDS011;29774;52.664;5.074;2022-12-05T14:15:23;7.57;;;4.10;;
44110;SDS011;29774;52.664;5.074;2022-12-05T14:34:26;8.40;;;4.00;;
44110;SDS011;29774;52.664;5.074;2022-12-05T14:39:38;9.05;;;3.53;;
44110;SDS011;29774;52.664;5.074;2022-12-05T14:42:15;6.65;;;3.33;;
44110;SDS011;29774;52.664;5.074;2022-12-05T14:44:50;9.23;;;4.53;;
44110;SDS011;29774;52.664;5.074;2022-12-05T14:47:20;8.05;;;4.25;;
44110;SDS011;29774;52.664;5.074;2022-12-05T14:49:58;5.57;;;3.67;;
44110;SDS011;29774;52.664;5.074;2022-12-05T14:52:44;11.40;;;4.05;;
44110;SDS011;29774;52.664;5.074;2022-12-05T14:55:43;11.13;;;3.72;;
44110;SDS011;29774;52.664;5.074;2022-12-05T15:04:02;5.70;;;2.88;;
44110;SDS011;29774;52.664;5.074;2022-12-05T15:09:42;7.30;;;3.42;;
44110;SDS011;29774;52.664;5.074;2022-12-05T15:12:40;7.05;;;4.47;;
44110;SDS011;29774;52.664;5.074;2022-12-05T15:15:14;4.93;;;2.85;;
44110;SDS011;29774;52.664;5.074;2022-12-05T15:17:56;7.78;;;3.70;;
44110;SDS011;29774;52.664;5.074;2022-12-05T15:20:33;5.28;;;3.50;;
44110;SDS011;29774;52.664;5.074;2022-12-05T15:29:00;7.72;;;3.65;;
44110;SDS011;29774;52.664;5.074;2022-12-05T15:31:53;4.18;;;3.13;;
44110;SDS011;29774;52.664;5.074;2022-12-05T15:34:41;7.28;;;3.83;;
44110;SDS011;29774;52.664;5.074;2022-12-05T15:37:20;4.70;;;3.17;;
44110;SDS011;29774;52.664;5.074;2022-12-05T15:42:35;9.02;;;3.53;;
44110;SDS011;29774;52.664;5.074;2022-12-05T15:47:37;7.25;;;4.13;;
44110;SDS011;29774;52.664;5.074;2022-12-05T15:50:04;6.72;;;3.03;;
44110;SDS011;29774;52.664;5.074;2022-12-05T15:55:13;7.20;;;3.17;;
44110;SDS011;29774;52.664;5.074;2022-12-05T15:57:48;6.07;;;3.30;;
44110;SDS011;29774;52.664;5.074;2022-12-05T16:00:21;7.15;;;3.90;;
44110;SDS011;29774;52.664;5.074;2022-12-05T16:05:36;4.30;;;3.05;;
44110;SDS011;29774;52.664;5.074;2022-12-05T16:08:05;7.97;;;4.20;;
44110;SDS011;29774;52.664;5.074;2022-12-05T16:10:32;6.38;;;4.00;;
44110;SDS011;29774;52.664;5.074;2022-12-05T16:13:03;4.82;;;3.13;;
44110;SDS011;29774;52.664;5.074;2022-12-05T16:15:31;4.40;;;2.60;;
44110;SDS011;29774;52.664;5.074;2022-12-05T16:17:59;3.97;;;2.55;;
44110;SDS011;29774;52.664;5.074;2022-12-05T16:23:22;4.20;;;2.78;;
44110;SDS011;29774;52.664;5.074;2022-12-05T16:26:09;5.38;;;2.97;;
44110;SDS011;29774;52.664;5.074;2022-12-05T16:28:55;4.32;;;2.33;;
44110;SDS011;29774;52.664;5.074;2022-12-05T16:31:25;7.88;;;2.90;;
44110;SDS011;29774;52.664;5.074;2022-12-05T16:34:05;4.93;;;2.63;;
44110;SDS011;29774;52.664;5.074;2022-12-05T16:36:32;3.15;;;2.40;;
44110;SDS011;29774;52.664;5.074;2022-12-05T16:39:03;5.40;;;3.17;;
44110;SDS011;29774;52.664;5.074;2022-12-05T16:41:34;4.20;;;2.45;;
44110;SDS011;29774;52.664;5.074;2022-12-05T16:44:01;4.97;;;3.13;;
44110;SDS011;29774;52.664;5.074;2022-12-05T16:49:13;9.88;;;5.28;;
44110;SDS011;29774;52.664;5.074;2022-12-05T16:51:58;10.55;;;4.72;;
44110;SDS011;29774;52.664;5.074;2022-12-05T16:54:33;5.05;;;2.97;;
44110;SDS011;29774;52.664;5.074;2022-12-05T16:56:59;6.10;;;3.03;;
44110;SDS011;29774;52.664;5.074;2022-12-05T16:59:36;4.22;;;2.72;;
44110;SDS011;29774;52.664;5.074;2022-12-05T17:02:04;6.05;;;2.28;;
44110;SDS011;29774;52.664;5.074;2022-12-05T17:04:35;5.18;;;2.85;;
44110;SDS011;29774;52.664;5.074;2022-12-05T17:07:00;5.18;;;2.85;;
44110;SDS011;29774;52.664;5.074;2022-12-05T17:09:26;5.35;;;3.08;;
44110;SDS011;29774;52.664;5.074;2022-12-05T17:11:52;5.47;;;3.10;;
44110;SDS011;29774;52.664;5.074;2022-12-05T17:14:26;5.00;;;3.10;;
44110;SDS011;29774;52.664;5.074;2022-12-05T17:16:51;4.28;;;3.33;;
44110;SDS011;29774;52.664;5.074;2022-12-05T17:19:17;6.65;;;3.42;;
44110;SDS011;29774;52.664;5.074;2022-12-05T17:21:43;4.90;;;2.90;;
44110;SDS011;29774;52.664;5.074;2022-12-05T17:24:16;6.30;;;5.03;;
44110;SDS011;29774;52.664;5.074;2022-12-05T17:26:42;7.53;;;4.35;;
44110;SDS011;29774;52.664;5.074;2022-12-05T17:29:08;4.95;;;3.15;;
44110;SDS011;29774;52.664;5.074;2022-12-05T17:31:34;4.35;;;3.25;;
44110;SDS011;29774;52.664;5.074;2022-12-05T17:34:00;4.75;;;3.63;;
44110;SDS011;29774;52.664;5.074;2022-12-05T17:36:25;9.05;;;5.93;;
44110;SDS011;29774;52.664;5.074;2022-12-05T17:38:51;6.70;;;4.07;;
44110;SDS011;29774;52.664;5.074;2022-12-05T17:41:21;9.20;;;4.60;;
44110;SDS011;29774;52.664;5.074;2022-12-05T17:43:47;6.97;;;4.45;;
44110;SDS011;29774;52.664;5.074;2022-12-05T17:46:15;5.10;;;3.72;;
44110;SDS011;29774;52.664;5.074;2022-12-05T17:48:42;10.75;;;5.15;;
44110;SDS011;29774;52.664;5.074;2022-12-05T17:51:09;8.60;;;4.32;;